Time;durP1;ratioP1;P1;durP2;ratioP2;P2;SDS_P1;SDS_P2;PMS_P1;PMS_P2;Temp;Humidity;BMP_temperature;BMP_pressure;BME280_temperature;BME280_humidity;BME280_pressure;Samples;Min_cycle;Max_cycle;Signal;HPM_P1;HPM_P2
2021/10/21 00:02:00;;;;;;;6.32;2.88;;;14.60;99.90;;;;;;4955705;28;20593;-76
2021/10/21 00:04:27;;;;;;;4.88;2.63;;;14.60;99.90;;;;;;4955930;28;20019;-78
2021/10/21 00:06:53;;;;;;;6.22;2.92;;;14.60;99.90;;;;;;4956465;28;20073;-79
2021/10/21 00:09:18;;;;;;;5.50;2.65;;;14.60;99.90;;;;;;4972826;28;20047;-77
2021/10/21 00:11:44;;;;;;;5.22;3.50;;;14.60;99.90;;;;;;4955605;28;20498;-76
2021/10/21 00:14:09;;;;;;;7.93;3.80;;;14.60;99.90;;;;;;4973052;28;20531;-78
2021/10/21 00:16:35;;;;;;;8.80;4.50;;;14.60;99.90;;;;;;4973009;28;20403;-78
2021/10/21 00:19:01;;;;;;;6.50;4.05;;;14.60;99.90;;;;;;4955386;28;20073;-78
2021/10/21 00:21:26;;;;;;;8.00;4.18;;;14.60;99.90;;;;;;4955987;28;20027;-77
2021/10/21 00:23:52;;;;;;;12.50;4.60;;;14.70;99.90;;;;;;4955885;28;20103;-77
2021/10/21 00:26:17;;;;;;;9.20;4.50;;;14.60;99.90;;;;;;4972435;28;20042;-76
2021/10/21 00:28:43;;;;;;;8.02;4.68;;;14.60;99.90;;;;;;4973768;28;20019;-76
2021/10/21 00:31:09;;;;;;;5.75;4.15;;;14.60;99.90;;;;;;4957019;29;20082;-75
2021/10/21 00:33:34;;;;;;;6.82;3.97;;;14.60;99.90;;;;;;4939493;29;20046;-80
2021/10/21 00:36:00;;;;;;;7.15;3.90;;;14.50;99.90;;;;;;4956869;28;20055;-83
2021/10/21 00:38:25;;;;;;;6.45;3.53;;;14.50;99.90;;;;;;4973733;28;20023;-82
2021/10/21 00:40:51;;;;;;;6.78;3.65;;;14.50;99.90;;;;;;4958499;28;20031;-83
2021/10/21 00:43:17;;;;;;;6.43;4.13;;;14.50;99.90;;;;;;4958707;28;20027;-82
2021/10/21 00:45:42;;;;;;;6.68;3.80;;;14.50;99.90;;;;;;4975082;28;20118;-82
2021/10/21 00:48:09;;;;;;;11.40;4.80;;;14.50;99.90;;;;;;4975133;28;20491;-82
2021/10/21 00:50:35;;;;;;;5.70;3.47;;;14.60;99.90;;;;;;4976344;28;20031;-79
2021/10/21 00:53:02;;;;;;;8.35;4.25;;;14.50;99.90;;;;;;4958782;28;20019;-78
2021/10/21 00:55:28;;;;;;;7.32;4.43;;;14.50;99.90;;;;;;4958015;28;20037;-78
2021/10/21 00:57:55;;;;;;;6.72;3.47;;;14.50;99.90;;;;;;4958892;28;20023;-81
2021/10/21 01:00:20;;;;;;;7.43;4.35;;;14.50;99.90;;;;;;4958664;28;20027;-80
2021/10/21 01:02:46;;;;;;;8.02;4.20;;;14.50;99.90;;;;;;4975670;28;20027;-80
2021/10/21 01:05:12;;;;;;;5.95;3.60;;;14.50;99.90;;;;;;4958462;28;20073;-85
2021/10/21 01:07:39;;;;;;;6.75;3.50;;;14.50;99.90;;;;;;4975337;28;20058;-86
2021/10/21 01:10:07;;;;;;;5.50;3.75;;;14.50;99.90;;;;;;4974554;28;20391;-84
2021/10/21 01:12:32;;;;;;;10.35;4.05;;;14.50;99.90;;;;;;4958468;28;20505;-84
2021/10/21 01:15:21;;;;;;;6.65;3.72;;;14.40;99.90;;;;;;4957748;28;20138;-81
2021/10/21 01:17:48;;;;;;;4.82;3.38;;;14.40;99.90;;;;;;4952674;28;20031;-77
2021/10/21 01:20:14;;;;;;;4.95;3.42;;;14.40;99.90;;;;;;4958121;28;20026;-77
2021/10/21 01:22:41;;;;;;;5.90;2.70;;;14.40;99.90;;;;;;4973855;28;20038;-77
2021/10/21 01:25:07;;;;;;;3.53;1.92;;;14.30;99.90;;;;;;4958114;28;20035;-77
2021/10/21 01:27:33;;;;;;;4.38;2.75;;;14.30;99.90;;;;;;4958233;28;20023;-77
2021/10/21 01:29:58;;;;;;;3.25;2.10;;;14.20;99.90;;;;;;4957339;28;20033;-79
2021/10/21 01:32:25;;;;;;;3.83;2.40;;;14.20;99.90;;;;;;4958690;28;20034;-79
2021/10/21 01:34:51;;;;;;;3.92;2.40;;;14.10;99.90;;;;;;4975398;28;20067;-78
2021/10/21 01:37:17;;;;;;;4.15;2.13;;;14.00;99.90;;;;;;4974608;28;20023;-78
2021/10/21 01:39:43;;;;;;;4.28;2.15;;;14.00;99.90;;;;;;4973223;28;20101;-77
2021/10/21 01:42:08;;;;;;;4.10;2.20;;;13.90;99.90;;;;;;4975115;28;20414;-77
2021/10/21 01:44:34;;;;;;;3.72;1.92;;;13.80;99.90;;;;;;4957151;28;20026;-78
2021/10/21 01:47:00;;;;;;;3.85;1.70;;;13.90;99.90;;;;;;4957706;28;20049;-78
2021/10/21 01:49:25;;;;;;;7.28;2.45;;;13.90;99.90;;;;;;4957915;28;20030;-76
2021/10/21 01:51:51;;;;;;;2.00;1.58;;;13.90;99.90;;;;;;4974547;28;20027;-78
2021/10/21 01:54:18;;;;;;;6.28;2.22;;;13.70;99.90;;;;;;4957351;28;20022;-77
2021/10/21 01:56:43;;;;;;;4.10;1.85;;;13.70;99.90;;;;;;4974980;28;20070;-80
2021/10/21 01:59:09;;;;;;;2.13;1.20;;;13.60;99.90;;;;;;4974558;28;20047;-81
2021/10/21 02:01:34;;;;;;;5.25;1.35;;;13.50;99.90;;;;;;4957604;28;20034;-83
2021/10/21 02:04:01;;;;;;;2.33;1.20;;;13.40;99.90;;;;;;4956537;28;20082;-78
2021/10/21 02:06:26;;;;;;;3.60;1.25;;;13.30;99.90;;;;;;4957963;28;20035;-81
2021/10/21 02:08:52;;;;;;;1.30;0.82;;;13.20;99.90;;;;;;4957970;28;20118;-83
2021/10/21 02:11:18;;;;;;;4.28;0.93;;;13.10;99.90;;;;;;4956546;28;20096;-77
2021/10/21 02:13:43;;;;;;;2.85;1.27;;;13.00;99.90;;;;;;4974749;28;20038;-77
2021/10/21 02:16:09;;;;;;;4.20;1.55;;;13.00;99.90;;;;;;4957184;28;20026;-79
2021/10/21 02:18:35;;;;;;;4.93;1.48;;;12.90;99.90;;;;;;4974199;28;20134;-77
2021/10/21 02:21:01;;;;;;;6.32;1.13;;;12.80;99.90;;;;;;4974436;28;20442;-77
2021/10/21 02:23:27;;;;;;;2.97;1.00;;;12.80;99.90;;;;;;4957442;28;20086;-78
2021/10/21 02:25:53;;;;;;;5.15;1.35;;;12.80;99.90;;;;;;4970134;28;20043;-77
2021/10/21 02:28:18;;;;;;;6.03;1.48;;;12.70;99.90;;;;;;4960398;28;20384;-78
2021/10/21 02:30:44;;;;;;;2.15;1.17;;;12.70;99.90;;;;;;4947378;28;20121;-83
2021/10/21 02:33:10;;;;;;;2.60;1.23;;;12.60;99.90;;;;;;4965864;28;20023;-80
2021/10/21 02:35:35;;;;;;;4.43;1.77;;;12.60;99.90;;;;;;4950763;28;20051;-81
2021/10/21 02:38:01;;;;;;;4.38;1.42;;;12.60;99.90;;;;;;4956745;28;20033;-77
2021/10/21 02:40:26;;;;;;;3.88;1.00;;;12.60;99.90;;;;;;4956446;28;20033;-77
2021/10/21 02:42:52;;;;;;;4.82;1.20;;;12.60;99.90;;;;;;4956587;28;20066;-77
2021/10/21 02:45:18;;;;;;;4.80;1.55;;;12.60;99.90;;;;;;4972678;28;20035;-82
2021/10/21 02:47:48;;;;;;;3.90;1.15;;;12.60;99.90;;;;;;4952113;29;20380;-82
2021/10/21 02:50:13;;;;;;;4.15;1.40;;;12.60;99.90;;;;;;4937377;29;20053;-80
2021/10/21 02:52:39;;;;;;;5.15;1.48;;;12.60;99.90;;;;;;4937340;29;20539;-77
2021/10/21 02:55:05;;;;;;;6.20;1.27;;;12.60;99.90;;;;;;4968747;28;20081;-80
2021/10/21 02:57:31;;;;;;;3.67;1.38;;;12.60;99.90;;;;;;4962347;28;20395;-78
2021/10/21 02:59:56;;;;;;;3.72;1.15;;;12.60;99.90;;;;;;4972227;28;20023;-78
2021/10/21 03:02:22;;;;;;;6.18;1.05;;;12.60;99.90;;;;;;4973296;28;20039;-77
2021/10/21 03:04:47;;;;;;;2.50;1.10;;;12.60;99.90;;;;;;4973823;28;20023;-80
2021/10/21 03:07:13;;;;;;;6.43;1.48;;;12.60;99.90;;;;;;4955249;28;20035;-78
2021/10/21 03:09:38;;;;;;;3.72;1.33;;;12.60;99.90;;;;;;4956197;28;20023;-78
2021/10/21 03:12:04;;;;;;;4.75;1.50;;;12.60;99.90;;;;;;4972563;28;20486;-79
2021/10/21 03:14:29;;;;;;;4.28;1.80;;;12.60;99.90;;;;;;4955536;28;20027;-79
2021/10/21 03:16:55;;;;;;;7.32;1.52;;;12.60;99.90;;;;;;4973826;28;20023;-79
2021/10/21 03:19:21;;;;;;;3.65;1.15;;;12.60;99.90;;;;;;4973884;28;20031;-78
2021/10/21 03:21:46;;;;;;;5.57;1.80;;;12.60;99.90;;;;;;4973214;28;20023;-82
2021/10/21 03:24:12;;;;;;;3.28;1.15;;;12.60;99.90;;;;;;4973467;28;20364;-81
2021/10/21 03:26:37;;;;;;;3.53;1.50;;;12.60;99.90;;;;;;4972818;28;20546;-81
2021/10/21 03:29:03;;;;;;;4.22;1.30;;;12.60;99.90;;;;;;4955184;28;20023;-82
2021/10/21 03:31:29;;;;;;;2.17;0.90;;;12.60;99.90;;;;;;4956364;28;20027;-81
2021/10/21 03:33:56;;;;;;;2.55;1.20;;;12.50;99.90;;;;;;4972279;28;20046;-80
2021/10/21 03:36:22;;;;;;;4.05;1.23;;;12.60;99.90;;;;;;4973161;28;20055;-82
2021/10/21 03:38:47;;;;;;;4.38;1.52;;;12.50;99.90;;;;;;4956426;28;20117;-77
2021/10/21 03:41:13;;;;;;;2.80;1.25;;;12.50;99.90;;;;;;4956004;28;20180;-82
2021/10/21 03:43:38;;;;;;;2.47;1.25;;;12.50;99.90;;;;;;4955599;28;20057;-82
2021/10/21 03:46:04;;;;;;;6.55;1.30;;;12.50;99.90;;;;;;4956012;28;20045;-83
2021/10/21 03:48:30;;;;;;;2.38;1.10;;;12.50;99.90;;;;;;4973577;28;20073;-77
2021/10/21 03:50:55;;;;;;;4.55;1.17;;;12.50;99.90;;;;;;4972771;28;20031;-77
2021/10/21 03:53:21;;;;;;;4.00;1.20;;;12.50;99.90;;;;;;4973442;28;20023;-77
2021/10/21 03:55:46;;;;;;;3.63;1.25;;;12.60;99.90;;;;;;4972471;28;20034;-77
2021/10/21 03:58:12;;;;;;;3.60;1.23;;;12.50;99.90;;;;;;4955077;28;20019;-79
2021/10/21 04:00:37;;;;;;;3.03;1.20;;;12.50;99.90;;;;;;4972565;28;20023;-78
2021/10/21 04:03:03;;;;;;;2.58;1.20;;;12.50;99.90;;;;;;4957376;28;20026;-77
2021/10/21 04:05:29;;;;;;;5.57;1.45;;;12.50;99.90;;;;;;4975148;28;20022;-77
2021/10/21 04:07:54;;;;;;;3.25;1.23;;;12.50;99.90;;;;;;4959859;28;20031;-77
2021/10/21 04:10:20;;;;;;;3.70;1.50;;;12.50;99.90;;;;;;4976720;28;20019;-77
2021/10/21 04:12:46;;;;;;;3.50;1.33;;;12.60;99.90;;;;;;4976643;28;20033;-78
2021/10/21 04:15:12;;;;;;;4.10;1.23;;;12.60;99.90;;;;;;4976700;28;20098;-76
2021/10/21 04:17:40;;;;;;;3.42;1.10;;;12.60;99.90;;;;;;4976257;28;20514;-76
2021/10/21 04:20:07;;;;;;;2.85;1.65;;;12.60;99.90;;;;;;4976576;28;20498;-77
2021/10/21 04:22:33;;;;;;;3.03;1.33;;;12.50;99.90;;;;;;4959787;28;20026;-76
2021/10/21 04:24:58;;;;;;;4.70;1.30;;;12.50;99.90;;;;;;4974720;28;20403;-78
2021/10/21 04:27:24;;;;;;;4.55;1.20;;;12.50;99.90;;;;;;4959566;28;20086;-77
2021/10/21 04:29:50;;;;;;;3.25;1.10;;;12.50;99.90;;;;;;4959547;28;20015;-77
2021/10/21 04:32:15;;;;;;;4.25;1.20;;;12.50;99.90;;;;;;4958479;28;20519;-77
2021/10/21 04:34:41;;;;;;;4.30;1.35;;;12.50;99.90;;;;;;4959134;28;20034;-79
2021/10/21 04:37:07;;;;;;;5.10;1.38;;;12.50;99.90;;;;;;4958769;28;20554;-76
2021/10/21 04:39:32;;;;;;;6.15;1.50;;;12.40;99.90;;;;;;4958894;28;20476;-77
2021/10/21 04:41:58;;;;;;;3.60;1.30;;;12.40;99.90;;;;;;4958987;28;20058;-76
2021/10/21 04:44:24;;;;;;;5.18;1.30;;;12.40;99.90;;;;;;4958713;28;20357;-77
2021/10/21 04:46:49;;;;;;;2.80;1.15;;;12.40;99.90;;;;;;4958313;28;20098;-77
2021/10/21 04:49:15;;;;;;;3.13;1.10;;;12.30;99.90;;;;;;4974834;28;20046;-76
2021/10/21 04:51:42;;;;;;;4.68;1.80;;;12.30;99.90;;;;;;4976255;28;20069;-77
2021/10/21 04:54:07;;;;;;;2.85;1.20;;;12.40;99.90;;;;;;4957916;28;20019;-77
2021/10/21 04:56:33;;;;;;;5.22;1.60;;;12.40;99.90;;;;;;4975223;28;20038;-83
2021/10/21 04:58:58;;;;;;;4.93;1.08;;;12.40;99.90;;;;;;4958586;28;20027;-83
2021/10/21 05:01:24;;;;;;;2.28;1.08;;;12.40;99.90;;;;;;4955960;28;20034;-84
2021/10/21 05:03:50;;;;;;;4.65;1.58;;;12.40;99.90;;;;;;4958063;28;20022;-79
2021/10/21 05:06:16;;;;;;;4.68;1.70;;;12.50;99.90;;;;;;4953161;28;20538;-80
2021/10/21 05:08:41;;;;;;;5.40;1.67;;;12.40;99.90;;;;;;4957825;28;20031;-82
2021/10/21 05:11:07;;;;;;;2.20;1.10;;;12.50;99.90;;;;;;4958170;28;20027;-82
2021/10/21 05:13:33;;;;;;;2.25;1.10;;;12.50;99.90;;;;;;4958242;28;20109;-82
2021/10/21 05:15:59;;;;;;;2.58;1.27;;;12.50;99.90;;;;;;4957671;28;20023;-84
2021/10/21 05:18:24;;;;;;;6.28;1.38;;;12.50;99.90;;;;;;4958612;28;20053;-78
2021/10/21 05:20:50;;;;;;;2.63;1.05;;;12.50;99.90;;;;;;4956925;28;20031;-83
2021/10/21 05:23:16;;;;;;;4.85;2.08;;;12.50;99.90;;;;;;4975389;28;20069;-78
2021/10/21 05:25:41;;;;;;;3.60;1.63;;;12.60;99.90;;;;;;4974664;28;20050;-79
2021/10/21 05:28:07;;;;;;;2.92;1.45;;;12.50;99.90;;;;;;4973215;28;20061;-78
2021/10/21 05:30:33;;;;;;;4.38;1.38;;;12.60;99.90;;;;;;4971975;28;20027;-77
2021/10/21 05:32:59;;;;;;;4.80;1.63;;;12.60;99.90;;;;;;4956931;28;20387;-83
2021/10/21 05:35:24;;;;;;;2.67;1.10;;;12.60;99.90;;;;;;4950819;28;20564;-78
2021/10/21 05:37:50;;;;;;;4.10;1.88;;;12.50;99.90;;;;;;4953976;28;20027;-79
2021/10/21 05:40:15;;;;;;;4.55;1.40;;;12.50;99.90;;;;;;4974040;28;20041;-79
2021/10/21 05:42:41;;;;;;;6.45;1.80;;;12.40;99.90;;;;;;4955939;28;20383;-78
2021/10/21 05:45:07;;;;;;;4.93;1.90;;;12.40;99.90;;;;;;4972454;28;20435;-80
2021/10/21 05:47:35;;;;;;;6.70;2.58;;;12.40;99.90;;;;;;4957575;28;20427;-82
2021/10/21 05:50:01;;;;;;;2.47;1.30;;;12.30;99.90;;;;;;4956655;28;20019;-83
2021/10/21 05:52:27;;;;;;;2.97;1.02;;;12.10;99.90;;;;;;4957756;28;20117;-83
2021/10/21 05:54:53;;;;;;;2.72;1.40;;;11.90;99.90;;;;;;4974027;28;20518;-81
2021/10/21 05:57:19;;;;;;;1.65;1.23;;;11.60;99.90;;;;;;4955422;28;20027;-85
2021/10/21 05:59:44;;;;;;;3.30;1.45;;;11.40;99.90;;;;;;4974522;28;20037;-85
2021/10/21 06:02:10;;;;;;;2.33;1.10;;;11.20;99.90;;;;;;4973293;28;20029;-85
2021/10/21 06:04:36;;;;;;;1.15;0.90;;;11.10;99.90;;;;;;4972465;28;20089;-85
2021/10/21 06:07:02;;;;;;;1.92;0.90;;;11.00;99.90;;;;;;4957294;28;20039;-84
2021/10/21 06:09:28;;;;;;;5.43;1.15;;;10.90;99.90;;;;;;4974221;28;20031;-83
2021/10/21 06:11:54;;;;;;;1.75;0.88;;;10.90;99.90;;;;;;4955491;28;20041;-84
2021/10/21 06:14:19;;;;;;;6.90;2.17;;;10.80;99.90;;;;;;4971523;28;20023;-81
2021/10/21 06:16:48;;;;;;;2.58;1.02;;;10.70;99.90;;;;;;4957521;28;20035;-82
2021/10/21 06:19:17;;;;;;;3.20;1.13;;;10.70;99.90;;;;;;4955265;28;20023;-80
2021/10/21 06:21:47;;;;;;;1.08;0.90;;;10.70;99.90;;;;;;4954565;28;20122;-80
2021/10/21 06:24:14;;;;;;;1.83;0.85;;;10.70;99.90;;;;;;4956503;28;20388;-81
2021/10/21 06:26:39;;;;;;;4.55;0.90;;;10.70;99.90;;;;;;4956846;28;20027;-81
2021/10/21 06:29:05;;;;;;;2.47;1.08;;;10.60;99.90;;;;;;4957159;28;20109;-82
2021/10/21 06:31:31;;;;;;;3.15;1.02;;;10.70;99.90;;;;;;4956666;28;20391;-79
2021/10/21 06:33:57;;;;;;;3.58;1.05;;;10.60;99.90;;;;;;4956917;28;20023;-79
2021/10/21 06:36:22;;;;;;;4.95;1.15;;;10.60;99.90;;;;;;4957124;28;20051;-81
2021/10/21 06:38:48;;;;;;;5.78;1.67;;;10.60;99.90;;;;;;4956285;28;20031;-79
2021/10/21 06:41:14;;;;;;;5.47;1.33;;;10.60;99.90;;;;;;4974296;28;20023;-80
2021/10/21 06:43:40;;;;;;;3.38;1.40;;;10.60;99.90;;;;;;4956928;28;20061;-79
2021/10/21 06:46:06;;;;;;;9.40;1.70;;;10.60;99.90;;;;;;4956181;28;20070;-80
2021/10/21 06:48:32;;;;;;;5.00;1.20;;;10.70;99.90;;;;;;4974361;28;20022;-79
2021/10/21 06:50:57;;;;;;;4.28;1.35;;;10.70;99.90;;;;;;4956704;28;20102;-80
2021/10/21 06:53:23;;;;;;;3.50;1.33;;;10.70;99.90;;;;;;4955960;28;20103;-79
2021/10/21 06:55:49;;;;;;;7.57;1.75;;;10.70;99.90;;;;;;4956636;28;20027;-79
2021/10/21 06:58:14;;;;;;;5.63;1.65;;;10.80;99.90;;;;;;4956702;28;20301;-80
2021/10/21 07:00:41;;;;;;;6.35;1.60;;;10.80;99.90;;;;;;4956242;28;20030;-80
2021/10/21 07:03:09;;;;;;;5.07;1.52;;;10.80;99.90;;;;;;4956382;28;20015;-79
2021/10/21 07:05:43;;;;;;;6.07;1.38;;;10.80;99.90;;;;;;4956783;28;20495;-79
2021/10/21 07:08:12;;;;;;;7.32;1.58;;;10.80;99.90;;;;;;4955728;28;20023;-79
2021/10/21 07:10:38;;;;;;;5.53;1.75;;;10.80;99.90;;;;;;4956851;28;20023;-80
2021/10/21 07:13:05;;;;;;;3.42;1.50;;;10.80;99.90;;;;;;4956669;28;20023;-83
2021/10/21 07:15:32;;;;;;;3.10;1.40;;;10.80;99.90;;;;;;4956155;28;20026;-82
2021/10/21 07:17:58;;;;;;;4.88;1.50;;;10.90;99.90;;;;;;4956427;28;20038;-83
2021/10/21 07:20:23;;;;;;;9.88;2.13;;;10.90;99.90;;;;;;4956108;28;20023;-81
2021/10/21 07:22:49;;;;;;;7.57;1.85;;;10.90;99.90;;;;;;4956542;28;20030;-90
2021/10/21 07:25:15;;;;;;;5.18;1.77;;;10.90;99.90;;;;;;4956622;28;20861;-83
2021/10/21 07:27:42;;;;;;;8.23;2.25;;;10.90;99.90;;;;;;4956204;28;20062;-80
2021/10/21 07:30:08;;;;;;;7.75;2.05;;;10.90;99.90;;;;;;4956302;28;20118;-82
2021/10/21 07:32:35;;;;;;;5.68;2.08;;;10.90;99.90;;;;;;4955839;28;20027;-80
2021/10/21 07:35:00;;;;;;;7.95;1.73;;;10.90;99.90;;;;;;4955402;28;20122;-81
2021/10/21 07:37:26;;;;;;;10.75;2.08;;;11.00;99.90;;;;;;4958261;28;20125;-84
2021/10/21 07:39:52;;;;;;;8.48;2.17;;;11.00;99.90;;;;;;4960600;28;20387;-81
2021/10/21 07:42:17;;;;;;;11.20;3.17;;;11.00;99.90;;;;;;4959440;28;20026;-81
2021/10/21 07:44:49;;;;;;;7.70;2.42;;;11.10;99.90;;;;;;4960421;28;20476;-81
2021/10/21 07:47:16;;;;;;;5.75;1.77;;;11.10;99.90;;;;;;4977359;28;20066;-80
2021/10/21 07:49:45;;;;;;;6.40;1.77;;;11.10;99.90;;;;;;4959956;28;20109;-92
2021/10/21 07:52:11;;;;;;;7.22;2.10;;;11.10;99.90;;;;;;4960532;28;20371;-89
2021/10/21 07:54:37;;;;;;;7.45;2.00;;;11.10;99.90;;;;;;4960793;28;20023;-90
2021/10/21 07:57:04;;;;;;;10.95;2.55;;;11.10;99.90;;;;;;4959404;28;20054;-91
2021/10/21 07:59:32;;;;;;;9.35;3.13;;;11.10;99.90;;;;;;4977924;28;20082;-90
2021/10/21 08:02:00;;;;;;;8.25;2.75;;;11.10;99.90;;;;;;4977352;28;20467;-87
2021/10/21 08:04:31;;;;;;;9.48;3.22;;;11.10;99.90;;;;;;4959459;28;20550;-88
2021/10/21 08:06:57;;;;;;;9.00;2.55;;;11.10;99.90;;;;;;4960085;28;20117;-88
2021/10/21 08:09:29;;;;;;;13.52;3.38;;;11.00;99.90;;;;;;4960532;28;20027;-82
2021/10/21 08:11:55;;;;;;;8.90;2.88;;;11.10;99.90;;;;;;4976287;28;20050;-87
2021/10/21 08:14:21;;;;;;;11.13;3.20;;;11.10;99.90;;;;;;4977051;28;20031;-80
2021/10/21 08:16:47;;;;;;;11.20;2.95;;;11.10;99.90;;;;;;4959186;28;20038;-81
2021/10/21 08:19:13;;;;;;;13.35;2.80;;;11.10;99.90;;;;;;4959410;28;20019;-81
2021/10/21 08:21:40;;;;;;;14.95;2.90;;;11.10;99.90;;;;;;4959555;28;20388;-82
2021/10/21 08:24:07;;;;;;;9.18;3.00;;;11.10;99.90;;;;;;4958588;28;20038;-81
2021/10/21 08:26:33;;;;;;;14.70;2.85;;;11.00;99.90;;;;;;4959687;28;20066;-81
2021/10/21 08:28:59;;;;;;;13.40;3.67;;;11.00;99.90;;;;;;4959340;28;20034;-81
2021/10/21 08:31:25;;;;;;;9.00;2.22;;;11.00;99.90;;;;;;4975729;28;20027;-80
2021/10/21 08:33:51;;;;;;;14.02;3.30;;;10.90;99.90;;;;;;4959238;28;20019;-82
2021/10/21 08:36:21;;;;;;;14.57;3.28;;;10.90;99.90;;;;;;4955864;28;20051;-80
2021/10/21 08:38:49;;;;;;;14.80;3.22;;;10.90;99.90;;;;;;4955719;29;20049;-80
2021/10/21 08:41:15;;;;;;;11.32;2.72;;;10.90;99.90;;;;;;4955923;29;20027;-84
2021/10/21 08:43:42;;;;;;;7.28;2.10;;;10.90;99.90;;;;;;4955553;29;20042;-80
2021/10/21 08:46:09;;;;;;;11.43;3.15;;;10.90;99.90;;;;;;4955009;29;20039;-81
2021/10/21 08:48:36;;;;;;;10.73;2.80;;;10.90;99.90;;;;;;4954903;28;20034;-82
2021/10/21 08:51:05;;;;;;;10.48;2.67;;;10.90;99.90;;;;;;4955337;29;20066;-83
2021/10/21 08:53:31;;;;;;;8.68;2.22;;;11.00;99.90;;;;;;4955028;29;20026;-82
2021/10/21 08:55:57;;;;;;;10.45;2.60;;;11.00;99.90;;;;;;4955660;29;20027;-80
2021/10/21 08:58:25;;;;;;;11.07;2.75;;;11.00;99.90;;;;;;4955671;29;20022;-81
2021/10/21 09:01:02;;;;;;;6.78;2.53;;;11.10;99.90;;;;;;4955107;29;20062;-81
2021/10/21 09:04:06;;;;;;;9.68;2.47;;;11.30;99.90;;;;;;4955447;29;20496;-81
2021/10/21 09:06:34;;;;;;;7.63;2.28;;;11.40;99.90;;;;;;4955734;29;20035;-80
2021/10/21 09:08:59;;;;;;;11.32;3.20;;;11.30;99.90;;;;;;4955291;29;20371;-82
2021/10/21 09:11:26;;;;;;;6.70;2.30;;;11.30;99.90;;;;;;4955553;29;20103;-80
2021/10/21 09:14:11;;;;;;;10.40;2.92;;;11.30;99.90;;;;;;4954729;29;20074;-80
2021/10/21 09:16:41;;;;;;;9.30;2.80;;;11.20;99.90;;;;;;4955431;29;20483;-80
2021/10/21 09:19:12;;;;;;;5.32;2.00;;;11.10;99.90;;;;;;4954979;29;20551;-80
2021/10/21 09:21:40;;;;;;;7.57;2.03;;;11.10;99.90;;;;;;4970937;28;20027;-79
2021/10/21 09:24:32;;;;;;;5.00;1.95;;;11.10;99.90;;;;;;4954801;29;20023;-82
2021/10/21 09:27:13;;;;;;;7.15;1.85;;;11.00;99.90;;;;;;4954167;29;20043;-81
2021/10/21 09:29:42;;;;;;;4.90;2.43;;;11.00;99.90;;;;;;4955408;29;20023;-86
2021/10/21 09:32:28;;;;;;;6.07;2.08;;;11.00;99.90;;;;;;4970894;28;20391;-81
2021/10/21 09:35:01;;;;;;;4.65;1.80;;;11.00;99.90;;;;;;4954139;28;20035;-80
2021/10/21 09:37:34;;;;;;;8.20;2.22;;;11.00;99.90;;;;;;4955232;29;20023;-80
2021/10/21 09:40:04;;;;;;;6.22;2.20;;;11.00;99.90;;;;;;4955057;29;20098;-80
2021/10/21 09:42:31;;;;;;;5.63;2.63;;;11.00;99.90;;;;;;4954121;29;20030;-83
2021/10/21 09:45:20;;;;;;;4.82;2.35;;;11.00;99.90;;;;;;4954400;29;20055;-82
2021/10/21 09:47:51;;;;;;;6.43;2.47;;;11.00;99.90;;;;;;4954701;29;20039;-80
2021/10/21 09:50:29;;;;;;;8.33;2.57;;;11.10;99.90;;;;;;4953855;29;20045;-80
2021/10/21 09:53:08;;;;;;;8.02;2.45;;;11.00;99.90;;;;;;4955066;29;20387;-81
2021/10/21 09:55:38;;;;;;;6.97;1.73;;;11.00;99.90;;;;;;4954108;29;20100;-82
2021/10/21 09:58:10;;;;;;;7.18;1.98;;;11.00;99.90;;;;;;4955542;29;20016;-80
2021/10/21 10:00:37;;;;;;;7.97;2.38;;;11.00;99.90;;;;;;4954143;28;20027;-80
2021/10/21 10:03:17;;;;;;;9.93;2.38;;;11.00;99.90;;;;;;4953347;29;20388;-82
2021/10/21 10:05:54;;;;;;;6.38;2.25;;;11.00;99.90;;;;;;4955583;28;20031;-83
2021/10/21 10:08:21;;;;;;;4.93;2.00;;;11.00;99.90;;;;;;4954318;29;20416;-82
2021/10/21 10:10:49;;;;;;;13.93;3.30;;;11.00;99.90;;;;;;4955035;29;20079;-80
2021/10/21 10:13:20;;;;;;;11.15;2.85;;;11.00;99.90;;;;;;4954197;29;20871;-83
2021/10/21 10:15:47;;;;;;;8.85;3.33;;;11.00;99.90;;;;;;4954434;29;20027;-81
2021/10/21 10:18:32;;;;;;;7.75;3.17;;;11.00;99.90;;;;;;4953454;29;20101;-84
2021/10/21 10:21:11;;;;;;;6.13;2.63;;;11.10;99.90;;;;;;4970145;28;20038;-80
2021/10/21 10:23:57;;;;;;;5.82;2.08;;;11.30;99.90;;;;;;5089877;27;1247019;-82
2021/10/21 10:26:56;;;;;;;7.15;1.90;;;11.40;99.90;;;;;;5092696;28;20036;-86
2021/10/21 10:29:36;;;;;;;7.18;2.10;;;11.50;99.90;;;;;;5092665;28;20047;-82
2021/10/21 10:32:26;;;;;;;8.10;2.15;;;11.60;99.90;;;;;;5109593;28;20038;-82
2021/10/21 10:34:52;;;;;;;5.65;1.75;;;11.60;99.90;;;;;;5091634;28;20038;-86
2021/10/21 10:37:20;;;;;;;10.75;2.22;;;11.60;99.90;;;;;;5091436;28;20426;-84
2021/10/21 10:39:52;;;;;;;7.10;1.90;;;11.70;99.90;;;;;;5092251;28;20019;-81
2021/10/21 10:42:32;;;;;;;8.48;2.13;;;11.70;99.90;;;;;;5091902;28;20036;-84
2021/10/21 10:45:02;;;;;;;7.95;2.20;;;11.80;99.90;;;;;;5091414;28;20024;-83
2021/10/21 10:47:48;;;;;;;10.82;2.75;;;11.80;99.90;;;;;;5092228;28;20016;-82
2021/10/21 10:50:22;;;;;;;7.28;1.83;;;11.90;99.90;;;;;;5091789;28;20028;-84
2021/10/21 10:52:56;;;;;;;6.68;1.95;;;11.80;99.90;;;;;;5090962;28;20020;-81
2021/10/21 10:55:22;;;;;;;8.98;2.83;;;11.80;99.90;;;;;;5091823;28;20020;-81
2021/10/21 10:57:48;;;;;;;6.32;1.85;;;11.80;99.90;;;;;;5091903;28;20471;-80
2021/10/21 11:00:35;;;;;;;9.13;2.10;;;11.70;99.90;;;;;;5091100;28;20028;-84
2021/10/21 11:03:02;;;;;;;5.43;2.05;;;11.80;99.90;;;;;;5091141;28;20035;-82
2021/10/21 11:05:42;;;;;;;9.32;2.20;;;11.80;99.90;;;;;;5108922;28;20023;-80
2021/10/21 11:08:08;;;;;;;8.90;2.70;;;11.80;99.90;;;;;;5091451;28;20039;-80
2021/10/21 11:10:39;;;;;;;7.20;2.30;;;11.80;99.90;;;;;;5091552;28;20024;-80
2021/10/21 11:13:23;;;;;;;6.90;2.33;;;11.70;99.90;;;;;;5090547;28;20093;-79
2021/10/21 11:15:49;;;;;;;7.72;2.75;;;11.80;99.90;;;;;;5091376;28;20032;-79
2021/10/21 11:18:43;;;;;;;8.00;2.40;;;12.00;99.90;;;;;;5091368;28;20031;-79
2021/10/21 11:21:08;;;;;;;9.27;1.92;;;12.00;99.90;;;;;;5090254;28;20024;-79
2021/10/21 11:23:34;;;;;;;9.55;2.22;;;12.00;99.90;;;;;;5090478;28;20048;-79
2021/10/21 11:26:03;;;;;;;8.18;2.40;;;11.90;99.90;;;;;;5090820;28;20027;-80
2021/10/21 11:28:31;;;;;;;7.15;2.35;;;11.90;99.90;;;;;;5108531;28;20031;-82
2021/10/21 11:30:57;;;;;;;10.15;2.22;;;11.80;99.90;;;;;;5090765;28;20018;-81
2021/10/21 11:33:23;;;;;;;8.95;2.63;;;11.90;99.90;;;;;;5087043;28;20024;-80
2021/10/21 11:35:51;;;;;;;8.35;2.08;;;11.90;99.90;;;;;;5076665;28;20032;-80
2021/10/21 11:38:18;;;;;;;8.75;2.22;;;11.90;99.90;;;;;;5077360;28;20012;-82
2021/10/21 11:40:46;;;;;;;6.68;1.75;;;11.90;99.90;;;;;;5076777;28;20019;-85
2021/10/21 11:43:45;;;;;;;7.90;2.10;;;12.00;99.90;;;;;;5076728;28;20119;-83
2021/10/21 11:46:13;;;;;;;6.70;2.28;;;12.00;99.90;;;;;;5077250;28;20502;-84
2021/10/21 11:48:40;;;;;;;9.68;2.60;;;12.10;99.90;;;;;;5077091;28;20024;-87
2021/10/21 11:51:12;;;;;;;6.43;1.83;;;12.20;99.90;;;;;;5076912;28;20020;-84
2021/10/21 11:53:39;;;;;;;6.30;2.17;;;12.20;99.90;;;;;;5076952;28;20019;-85
2021/10/21 11:56:05;;;;;;;3.05;1.27;;;12.20;99.90;;;;;;5094208;28;20027;-81
2021/10/21 11:58:34;;;;;;;3.22;0.95;;;11.90;99.90;;;;;;5076765;28;20065;-79
2021/10/21 12:01:05;;;;;;;1.77;0.90;;;11.40;99.90;;;;;;5077007;28;20131;-82
2021/10/21 12:03:39;;;;;;;1.20;0.90;;;10.90;99.90;;;;;;5076232;28;20442;-81
2021/10/21 12:06:07;;;;;;;1.45;0.90;;;10.60;99.90;;;;;;5076602;28;20822;-81
2021/10/21 12:08:33;;;;;;;2.80;1.42;;;10.30;99.90;;;;;;5076820;28;20028;-84
2021/10/21 12:11:02;;;;;;;2.50;1.33;;;10.20;99.90;;;;;;5076185;28;20024;-81
2021/10/21 12:13:33;;;;;;;1.30;1.00;;;10.00;99.90;;;;;;5076574;28;20111;-79
2021/10/21 12:16:01;;;;;;;5.53;1.65;;;10.00;99.90;;;;;;5076156;28;20201;-82
2021/10/21 12:18:31;;;;;;;2.97;1.20;;;9.80;99.90;;;;;;5077031;28;20056;-78
2021/10/21 12:21:03;;;;;;;3.95;1.35;;;9.80;99.90;;;;;;5076856;28;20102;-86
2021/10/21 12:23:31;;;;;;;5.38;1.60;;;9.80;99.90;;;;;;5094192;28;20122;-87
2021/10/21 12:26:06;;;;;;;1.85;1.20;;;9.70;99.90;;;;;;5076758;28;20354;-79
2021/10/21 12:28:40;;;;;;;1.63;1.00;;;9.70;99.90;;;;;;5094676;28;20486;-81
2021/10/21 12:31:17;;;;;;;3.33;1.13;;;9.70;99.90;;;;;;5075699;28;20024;-78
2021/10/21 12:33:58;;;;;;;2.22;1.23;;;9.60;99.90;;;;;;5076466;28;20038;-81
2021/10/21 12:36:26;;;;;;;2.30;1.45;;;9.70;99.90;;;;;;5076460;28;20024;-81
2021/10/21 12:38:53;;;;;;;2.45;1.17;;;9.70;99.90;;;;;;5075596;28;20020;-80
2021/10/21 12:41:22;;;;;;;4.60;1.30;;;9.80;99.90;;;;;;5076156;28;20020;-78
2021/10/21 12:44:05;;;;;;;4.07;1.20;;;9.80;99.90;;;;;;5075833;28;20073;-78
2021/10/21 12:46:31;;;;;;;5.75;1.92;;;10.00;99.90;;;;;;5075027;28;20024;-78
2021/10/21 12:49:18;;;;;;;3.08;1.70;;;10.00;99.90;;;;;;5094002;28;20081;-79
2021/10/21 12:51:45;;;;;;;3.60;1.60;;;10.10;99.90;;;;;;5075486;28;20539;-79